Latest Weather Observations for Merimbula

IDN60801

Issued at 12:35 pm EDT Tuesday 25 November 2014 (issued every 30 minutes, with the page automatically refreshed every 10 minutes)

About weather observations | Map of weather stations | Latest weather observations for NSW | Other Formats
Station Details ID: 069147 Name: MERIMBULA AIRPORT AWS Lat: -36.91 Lon: 149.90 Height: 1.5 m
Data from the previous 72 hours. | See also: Recent months at Merimbula
Date/Time
EDT
Temp
°C
App
Temp
°C
Dew
Point
Rel
Hum
%
Delta-T
°C
Wind Press
QNH
hPa
Press
MSL
hPa
Rain
since 9 am
mm
Dir
 
Spd
km/h
Gust
km/h
Spd
kts
Gust
kts
25/12:30pm 23.0 20.5 6.7 35 8.4 SW 9 17 5 9 1014.8 1014.8 0.0
25/12:00pm 22.9 19.8 7.4 37 8.1 SSW 13 24 7 13 1015.0 1015.0 0.0
25/11:30am 21.3 18.1 5.2 35 7.9 SSW 11 28 6 15 1014.9 1014.9 0.0
25/11:00am 20.7 16.6 4.3 34 7.9 SSW 15 28 8 15 1014.8 1014.8 0.0
25/10:30am 20.6 16.5 4.6 35 7.8 SW 15 26 8 14 1014.6 1014.6 0.0
25/10:00am 19.6 15.2 4.9 38 7.1 WSW 17 32 9 17 1014.5 1014.5 0.0
25/09:30am 19.1 14.3 4.8 39 6.9 SSW 19 26 10 14 1014.4 1014.4 0.0
25/09:00am 18.5 13.8 6.0 44 6.1 SSW 20 30 11 16 1014.2 1014.2 -
25/08:30am 17.8 13.7 6.3 47 5.7 SW 17 24 9 13 1014.2 1014.2 -
25/08:00am 16.9 13.0 7.0 52 4.9 SW 17 28 9 15 1013.8 1013.8 -
25/07:30am 15.9 11.8 6.3 53 4.7 SSW 17 26 9 14 1013.5 1013.5 -
25/07:00am 14.6 9.3 6.7 59 3.8 WSW 24 39 13 21 1012.6 1012.6 -
25/06:30am 14.1 8.9 7.4 64 3.3 WSW 24 37 13 20 1012.1 1012.1 -
25/06:00am 14.1 10.2 7.2 63 3.4 WSW 17 33 9 18 1011.2 1011.2 -
25/05:30am 14.3 10.5 7.6 64 3.3 SSW 17 26 9 14 1010.7 1010.7 -
25/05:00am 14.4 9.0 8.1 66 3.1 WSW 26 44 14 24 1009.8 1009.8 -
25/04:46am 14.5 8.7 8.0 65 3.2 SW 28 46 15 25 1009.1 1009.1 -
25/04:30am 14.6 8.9 8.3 66 3.2 WSW 28 43 15 23 1008.9 1008.9 -
25/04:00am 14.6 9.7 9.8 73 2.5 SW 26 41 14 22 1008.8 1008.8 -
25/03:30am 14.9 11.5 11.1 78 2.0 SW 20 37 11 20 1008.1 1008.1 -
25/03:00am 16.5 14.1 12.8 79 2.1 SSW 17 32 9 17 1008.1 1008.1 4.0
25/02:30am 16.6 14.9 13.5 82 1.7 SW 15 20 8 11 1007.6 1007.6 -
25/02:00am 16.8 15.2 13.9 83 1.6 SW 15 20 8 11 1007.6 1007.6 -
25/01:30am 17.6 15.7 15.2 86 1.4 SSW 19 26 10 14 1007.4 1007.4 -
25/01:00am 18.3 19.6 17.0 92 0.8 S 6 11 3 6 1007.2 1007.2 -
25/12:30am 18.4 18.7 17.1 92 0.8 WSW 11 19 6 10 1006.8 1006.8 -
25/12:19am 18.7 19.2 17.4 92 0.8 WNW 11 19 6 10 1006.1 1006.1 -
25/12:00am 18.6 18.9 17.1 91 0.9 E 11 22 6 12 1004.0 1004.0 -
 
Date/Time
EDT
Temp
°C
App
Temp
°C
Dew
Point
Rel
Hum
%
Delta-T
°C
Wind Press
QNH
hPa
Press
MSL
hPa
Rain
since 9 am
mm
Dir
 
Spd
km/h
Gust
km/h
Spd
kts
Gust
kts
24/11:56pm 18.7 20.4 17.2 91 0.9 E 4 15 2 8 1005.4 1005.4 -
24/11:30pm 18.8 19.5 17.1 90 1.0 NNW 9 17 5 9 1007.6 1007.6 -
24/11:21pm 19.0 19.1 17.5 91 0.9 N 13 22 7 12 1008.0 1008.0 -
24/11:00pm 19.2 21.2 17.9 92 0.8 WNW 4 11 2 6 1009.1 1009.1 -
24/10:47pm 19.6 20.5 18.4 93 0.7 WNW 11 15 6 8 1009.3 1009.3 -
24/10:30pm 19.5 21.1 18.2 92 0.8 NNW 7 11 4 6 1008.8 1008.8 -
24/10:00pm 19.4 20.5 18.1 92 0.8 W 9 15 5 8 1007.8 1007.8 -
24/09:30pm 19.2 20.9 18.0 93 0.7 N 6 9 3 5 1007.1 1007.1 -
24/09:00pm 19.1 20.2 18.1 94 0.6 NNE 9 15 5 8 1007.0 1007.0 -
24/08:30pm 19.1 21.9 17.9 93 0.7 CALM 0 0 0 0 1007.9 1007.9 -
24/08:00pm 19.2 21.9 17.7 91 0.9 CALM 0 0 0 0 1007.2 1007.2 -
24/07:30pm 19.5 21.1 17.8 90 1.0 WNW 6 9 3 5 1007.3 1007.3 -
24/07:00pm 19.4 22.1 17.7 90 1.0 CALM 0 0 0 0 1007.0 1007.0 -
24/06:30pm 19.8 22.7 18.3 91 0.9 CALM 0 0 0 0 1006.9 1006.9 -
24/06:00pm 19.5 20.9 17.8 90 1.0 NNW 7 11 4 6 1006.9 1006.9 -
24/05:30pm 19.9 22.9 18.4 91 0.9 CALM 0 0 0 0 1007.3 1007.3 -
24/05:00pm 19.8 22.8 18.5 92 0.8 CALM 0 0 0 0 1007.4 1007.4 -
24/04:30pm 19.7 22.7 18.4 92 0.8 CALM 0 0 0 0 1008.0 1008.0 -
24/04:27pm 19.7 22.7 18.4 92 0.8 CALM 0 0 0 0 1008.1 1008.1 -
24/04:00pm 19.5 22.3 18.0 91 0.9 CALM 0 0 0 0 1008.9 1008.9 6.2
24/03:30pm 19.8 22.7 18.3 91 0.9 CALM 0 0 0 0 1009.8 1009.8 4.6
24/03:04pm 20.1 23.1 18.4 90 1.1 CALM 0 0 0 0 1010.1 1010.1 2.6
24/03:00pm 20.1 23.2 18.6 91 0.9 CALM 0 0 0 0 1010.1 1010.1 2.6
24/02:49pm 20.3 23.5 18.8 91 0.9 CALM 0 0 0 0 1009.8 1009.8 2.4
24/02:30pm 20.5 23.8 19.0 91 0.9 CALM 0 0 0 0 1010.1 1010.1 2.2
24/02:18pm 20.4 23.5 18.7 90 1.1 CALM 0 0 0 0 1010.4 1010.4 1.2
24/02:00pm 20.8 24.0 18.9 89 1.2 CALM 0 0 0 0 1009.7 1009.7 1.0
24/01:58pm 20.9 23.8 19.0 89 1.2 SE 2 9 1 5 1009.9 1009.9 1.0
24/01:48pm 20.8 21.7 18.4 86 1.5 SSE 11 15 6 8 1010.2 1010.2 0.8
24/01:30pm 21.7 24.5 17.9 79 2.4 CALM 0 0 0 0 1009.3 1009.3 0.0
24/01:00pm 21.9 22.0 17.5 76 2.7 W 13 19 7 10 1010.1 1010.1 0.0
24/12:30pm 21.4 22.9 17.6 79 2.3 W 6 9 3 5 1009.0 1009.0 0.0
24/12:00pm 21.2 22.6 17.4 79 2.3 WSW 6 11 3 6 1009.2 1009.2 0.0
24/11:30am 20.6 23.2 17.4 82 2.0 CALM 0 - 0 - 1010.1 1010.1 0.0
24/11:00am 20.1 18.7 16.9 82 1.9 NNE 20 32 11 17 1010.4 1010.4 0.0
24/10:30am 20.8 19.4 17.0 79 2.3 NE 20 33 11 18 1009.7 1009.7 0.0
24/10:00am 21.7 22.4 16.2 71 3.3 NNE 7 19 4 10 1009.6 1009.6 0.0
24/09:30am 22.1 24.3 16.6 71 3.3 CALM 0 9 0 5 1009.6 1009.6 0.0
24/09:00am 22.5 23.2 16.1 67 3.9 NNW 7 11 4 6 1009.9 1009.9 0.0
24/08:30am 22.7 22.8 15.5 64 4.3 WNW 9 13 5 7 1010.5 1010.5 0.0
24/08:00am 21.6 19.8 14.5 64 4.2 NW 17 22 9 12 1010.9 1010.9 0.0
24/07:30am 21.1 19.4 14.7 67 3.8 NW 17 24 9 13 1011.0 1011.0 0.0
24/07:00am 19.1 17.6 14.1 73 2.9 NNW 15 20 8 11 1011.7 1011.7 0.0
24/06:30am 17.3 17.9 14.2 82 1.8 NNW 4 9 2 5 1012.3 1012.3 0.0
24/06:00am 17.2 16.7 13.9 81 1.9 NNW 9 17 5 9 1012.5 1012.5 0.0
24/05:30am 16.9 17.8 14.0 83 1.6 NNE 2 9 1 5 1013.0 1013.0 0.0
24/05:00am 17.2 16.4 14.1 82 1.8 NW 11 17 6 9 1013.4 1013.4 0.0
24/04:30am 16.9 17.5 14.2 84 1.5 W 4 15 2 8 1014.0 1014.0 0.0
24/04:00am 16.9 16.5 14.2 84 1.5 N 9 17 5 9 1012.9 1012.9 0.0
24/03:30am 16.8 16.7 13.9 83 1.6 S 7 9 4 5 1013.3 1013.3 0.0
24/03:00am 17.0 16.5 13.7 81 1.9 NNW 9 11 5 6 1013.6 1013.6 0.0
24/02:30am 16.8 17.0 14.1 84 1.5 NW 6 17 3 9 1014.1 1014.1 0.0
24/02:00am 16.6 16.3 14.4 87 1.3 NW 9 11 5 6 1014.3 1014.3 0.0
24/01:30am 16.1 17.6 14.6 91 0.9 CALM 0 0 0 0 1014.6 1014.6 0.0
24/01:00am 16.0 17.4 14.4 90 0.9 CALM 0 0 0 0 1015.1 1015.1 0.0
24/12:30am 16.1 17.6 14.6 91 0.9 CALM 0 0 0 0 1015.5 1015.5 0.0
24/12:00am 15.8 17.1 14.0 89 1.0 CALM 0 0 0 0 1015.2 1015.2 0.0
 
Date/Time
EDT
Temp
°C
App
Temp
°C
Dew
Point
Rel
Hum
%
Delta-T
°C
Wind Press
QNH
hPa
Press
MSL
hPa
Rain
since 9 am
mm
Dir
 
Spd
km/h
Gust
km/h
Spd
kts
Gust
kts
23/11:30pm 16.3 17.7 14.3 88 1.1 CALM 0 0 0 0 1015.5 1015.5 0.0
23/11:00pm 16.9 17.3 15.2 90 1.0 SW 7 13 4 7 1015.1 1015.1 0.0
23/10:30pm 16.9 16.9 15.2 90 1.0 SSW 9 13 5 7 1015.2 1015.2 0.0
23/10:00pm 17.1 18.9 15.6 91 0.9 CALM 0 0 0 0 1015.3 1015.3 0.0
23/09:30pm 16.7 18.3 14.9 89 1.0 CALM 0 0 0 0 1015.1 1015.1 0.0
23/09:00pm 17.3 19.0 15.3 88 1.2 CALM 0 0 0 0 1014.6 1014.6 0.0
23/08:30pm 17.3 19.0 15.1 87 1.3 CALM 0 0 0 0 1014.1 1014.1 0.0
23/08:00pm 17.6 19.1 14.7 83 1.7 CALM 0 0 0 0 1014.0 1014.0 0.0
23/07:30pm 18.6 20.3 15.1 80 2.0 CALM 0 0 0 0 1013.7 1013.7 0.0
23/07:00pm 19.2 19.7 14.9 76 2.5 SE 6 11 3 6 1013.5 1013.5 0.0
23/06:30pm 20.3 20.6 15.1 72 3.1 ESE 7 13 4 7 1013.0 1013.0 0.0
23/06:00pm 20.6 20.6 15.2 71 3.2 E 9 15 5 8 1012.6 1012.6 0.0
23/05:30pm 21.0 20.9 14.9 68 3.6 E 9 15 5 8 1012.4 1012.4 0.0
23/05:00pm 21.3 21.0 15.4 69 3.5 E 11 19 6 10 1012.5 1012.5 0.0
23/04:30pm 21.2 20.1 15.3 69 3.5 ESE 15 20 8 11 1012.5 1012.5 0.0
23/04:00pm 21.2 20.4 15.1 68 3.6 ESE 13 22 7 12 1012.5 1012.5 0.0
23/03:30pm 21.9 20.9 15.7 68 3.7 ESE 15 22 8 12 1012.3 1012.3 0.0
23/03:00pm 21.9 20.6 15.7 68 3.7 E 17 26 9 14 1012.4 1012.4 0.0
23/02:30pm 22.1 21.3 16.1 69 3.6 ESE 15 22 8 12 1012.3 1012.3 0.0
23/02:00pm 22.0 20.7 15.8 68 3.7 ESE 17 26 9 14 1011.9 1011.9 0.0
23/01:30pm 22.4 21.3 16.4 69 3.6 ESE 17 28 9 15 1012.0 1012.0 0.0
23/01:00pm 22.4 21.1 16.9 71 3.4 ESE 19 28 10 15 1012.0 1012.0 0.0
23/12:30pm 22.4 21.6 16.2 68 3.8 ESE 15 24 8 13 1012.0 1012.0 0.0
23/12:00pm 22.4 21.6 16.2 68 3.8 E 15 20 8 11 1012.0 1012.0 0.0
23/11:30am 22.8 22.6 16.8 69 3.7 E 13 19 7 10 1012.3 1012.3 0.0
23/11:00am 22.4 21.8 15.7 66 4.0 ESE 13 20 7 11 1012.3 1012.3 0.0
23/10:30am 22.6 22.8 17.7 74 3.0 SE 13 19 7 10 1012.3 1012.3 0.0
23/10:00am 23.6 24.0 17.3 67 3.9 SE 11 19 6 10 1011.7 1011.7 0.0
23/09:30am 22.1 23.2 17.9 77 2.6 E 9 15 5 8 1011.6 1011.6 0.0
23/09:00am 22.1 22.5 16.4 70 3.5 E 9 20 5 11 1011.4 1011.4 0.0
23/08:30am 22.6 24.1 16.6 69 3.7 SE 4 13 2 7 1011.1 1011.1 0.0
23/08:00am 22.0 24.4 16.9 73 3.1 CALM 0 0 0 0 1010.1 1010.1 0.0
23/07:30am 19.8 21.8 16.1 79 2.2 CALM 0 0 0 0 1009.9 1009.9 0.0
23/07:00am 18.5 20.8 16.7 89 1.1 CALM 0 0 0 0 1009.8 1009.8 0.0
23/06:30am 17.1 19.1 16.0 93 0.6 CALM 0 2 0 1 1009.7 1009.7 0.0
23/06:00am 16.6 17.7 15.5 93 0.6 N 4 9 2 5 1009.5 1009.5 0.0
23/05:30am 16.3 17.9 15.0 92 0.8 CALM 0 7 0 4 1009.3 1009.3 0.0
23/05:00am 16.4 16.7 15.1 92 0.8 S 7 11 4 6 1009.0 1009.0 0.0
23/04:30am 16.2 17.7 14.6 90 0.9 CALM 0 0 0 0 1008.4 1008.4 0.0
23/04:00am 17.2 19.0 15.5 90 1.0 CALM 0 0 0 0 1008.7 1008.7 0.0
23/03:30am 17.5 19.4 15.8 90 1.0 CALM 0 0 0 0 1008.4 1008.4 0.0
23/03:00am 17.5 19.5 16.0 91 0.9 CALM 0 0 0 0 1009.1 1009.1 0.0
23/02:30am 17.3 19.1 15.6 90 1.0 CALM 0 0 0 0 1008.5 1008.5 0.0
23/02:00am 17.5 18.2 16.0 91 0.9 SW 7 13 4 7 1009.4 1009.4 0.0
23/01:30am 17.3 18.3 15.3 88 1.2 S 4 7 2 4 1009.2 1009.2 0.0
23/01:00am 18.5 19.8 16.1 86 1.4 N 4 11 2 6 1010.1 1010.1 0.0
23/12:30am 18.4 19.6 16.0 86 1.4 N 4 13 2 7 1010.0 1010.0 0.0
23/12:00am 18.4 20.4 16.0 86 1.4 CALM 0 6 0 3 1010.3 1010.3 0.0
 
Date/Time
EDT
Temp
°C
App
Temp
°C
Dew
Point
Rel
Hum
%
Delta-T
°C
Wind Press
QNH
hPa
Press
MSL
hPa
Rain
since 9 am
mm
Dir
 
Spd
km/h
Gust
km/h
Spd
kts
Gust
kts
22/11:30pm 17.8 19.0 15.8 88 1.2 NNE 4 15 2 8 1010.0 1010.0 0.0
22/11:00pm 18.2 18.9 16.0 87 1.3 NNW 7 15 4 8 1011.0 1011.0 0.0
22/10:30pm 17.7 19.6 15.7 88 1.2 CALM 0 0 0 0 1011.1 1011.1 0.0
22/10:00pm 17.8 19.5 15.1 84 1.6 CALM 0 0 0 0 1011.8 1011.8 0.0
22/09:30pm 17.9 19.6 15.2 84 1.6 CALM 0 0 0 0 1011.4 1011.4 0.0
22/09:00pm 18.7 20.5 15.6 82 1.8 CALM 0 0 0 0 1011.2 1011.2 0.0
22/08:30pm 19.0 20.9 15.7 81 2.0 CALM 0 0 0 0 1011.4 1011.4 0.0
22/08:00pm 19.4 20.2 15.9 80 2.1 N 6 15 3 8 1011.0 1011.0 0.0
22/07:30pm 19.5 19.3 15.8 79 2.2 NNE 11 19 6 10 1010.8 1010.8 0.0
22/07:00pm 19.9 18.9 15.5 76 2.6 NE 15 26 8 14 1010.8 1010.8 0.0
22/06:30pm 20.1 19.1 15.5 75 2.7 NNE 15 26 8 14 1010.9 1010.9 0.0
22/06:00pm 21.1 19.2 15.2 69 3.5 NE 19 30 10 16 1010.7 1010.7 0.0
22/05:30pm 21.8 20.3 15.2 66 3.9 NE 17 26 9 14 1010.7 1010.7 0.0
22/05:00pm 21.6 19.6 15.0 66 3.9 NE 19 30 10 16 1010.9 1010.9 0.0
22/04:30pm 21.9 20.5 15.5 67 3.8 NE 17 28 9 15 1011.1 1011.1 0.0
22/04:00pm 22.2 20.1 15.1 64 4.2 NE 20 32 11 17 1011.3 1011.3 0.0
22/03:30pm 22.0 19.1 14.1 61 4.6 ENE 22 32 12 17 1011.5 1011.5 0.0
22/03:00pm 22.6 20.0 13.9 58 5.1 NE 20 33 11 18 1011.2 1011.2 0.0
22/02:30pm 22.2 18.9 12.7 55 5.4 NE 22 37 12 20 1011.2 1011.2 0.0
22/02:00pm 22.8 19.2 13.0 54 5.6 NE 24 41 13 22 1011.5 1011.5 0.0
22/01:30pm 23.0 19.8 14.3 58 5.1 NE 24 35 13 19 1011.6 1011.6 0.0
22/01:00pm 23.6 21.2 14.3 56 5.5 NE 20 37 11 20 1012.0 1012.0 0.0

Other Formats:

Comma delimited format used in spreadsheet applications
http://www.bom.gov.au/fwo/IDN60801/IDN60801.95929.axf

JavaScript Object Notation format (JSON) in row-major order
http://www.bom.gov.au/fwo/IDN60801/IDN60801.95929.json